createdAt,value
2022-08-08T00:00:55.168Z,3.50
2022-08-08T00:02:31.427Z,4.00
2022-08-08T00:05:12.839Z,4.25
2022-08-08T00:07:48.263Z,4.25
2022-08-08T00:10:28.610Z,4.00
2022-08-08T00:13:03.915Z,3.75
2022-08-08T00:15:57.448Z,4.00
2022-08-08T00:18:31.711Z,4.75
2022-08-08T00:21:05.232Z,2.25
2022-08-08T00:23:43.210Z,3.00
2022-08-08T00:26:26.169Z,5.75
2022-08-08T00:29:08.011Z,5.00
2022-08-08T00:32:20.108Z,4.00
2022-08-08T00:35:21.310Z,4.00
2022-08-08T00:38:31.227Z,4.50
2022-08-08T00:41:55.018Z,4.75
2022-08-08T00:44:53.364Z,4.00
2022-08-08T00:48:06.636Z,4.00
2022-08-08T00:51:42.227Z,3.00
2022-08-08T00:54:46.022Z,3.25
2022-08-08T00:57:40.805Z,4.00
2022-08-08T01:00:17.073Z,4.50
2022-08-08T01:03:57.301Z,4.00
2022-08-08T01:06:34.096Z,4.00
2022-08-08T01:09:36.290Z,4.00
2022-08-08T01:12:46.602Z,4.00
2022-08-08T01:15:57.755Z,3.75
2022-08-08T01:18:52.514Z,3.00
2022-08-08T01:22:12.090Z,4.00
2022-08-08T01:25:08.296Z,3.25
2022-08-08T01:28:02.413Z,4.25
2022-08-08T01:31:23.807Z,4.00
2022-08-08T01:34:29.866Z,4.25
2022-08-08T01:37:37.234Z,4.75
2022-08-08T01:40:28.973Z,4.00
2022-08-08T01:43:02.626Z,4.00
2022-08-08T01:45:56.247Z,4.00
2022-08-08T01:48:33.858Z,4.75
2022-08-08T01:51:55.277Z,5.00
2022-08-08T01:55:17.290Z,3.50
2022-08-08T01:57:07.491Z,4.75
2022-08-08T02:00:05.007Z,4.75
2022-08-08T02:02:58.596Z,4.50
2022-08-08T02:05:33.841Z,3.75
2022-08-08T02:08:24.447Z,3.75
2022-08-08T02:11:08.348Z,4.00
2022-08-08T02:13:55.669Z,4.25
2022-08-08T02:16:28.998Z,4.50
2022-08-08T02:19:26.972Z,3.25
2022-08-08T02:22:16.807Z,4.00
2022-08-08T02:24:54.082Z,3.25
2022-08-08T02:27:38.838Z,4.00
2022-08-08T02:30:20.779Z,5.00
2022-08-08T02:34:00.656Z,5.00
2022-08-08T02:36:31.014Z,5.00
2022-08-08T02:39:40.866Z,4.00
2022-08-08T02:42:41.507Z,4.25
2022-08-08T02:45:51.660Z,3.25
2022-08-08T02:48:55.832Z,4.00
2022-08-08T02:51:56.537Z,4.00
2022-08-08T02:55:04.061Z,4.00
2022-08-08T02:58:28.633Z,3.25
2022-08-08T03:01:50.888Z,4.00
2022-08-08T03:05:11.062Z,3.00
2022-08-08T03:08:20.115Z,5.50
2022-08-08T03:12:01.439Z,4.00
2022-08-08T03:16:00.169Z,4.00
2022-08-08T03:18:04.895Z,3.75
2022-08-08T03:20:51.925Z,5.00
2022-08-08T03:23:21.473Z,4.00
2022-08-08T03:25:51.119Z,4.25
2022-08-08T03:28:22.220Z,5.00
2022-08-08T03:31:07.937Z,5.00
2022-08-08T03:33:56.851Z,5.00
2022-08-08T03:36:30.107Z,4.00
2022-08-08T03:39:14.160Z,4.00
2022-08-08T03:42:11.937Z,5.00
2022-08-08T03:44:33.841Z,4.00
2022-08-08T03:47:13.952Z,4.50
2022-08-08T03:49:59.753Z,5.00
2022-08-08T03:52:31.281Z,4.00
2022-08-08T03:55:20.228Z,4.25
2022-08-08T03:58:31.445Z,4.00
2022-08-08T04:01:01.984Z,4.50
2022-08-08T04:03:57.539Z,4.00
2022-08-08T04:06:29.873Z,4.50
2022-08-08T04:09:10.526Z,5.25
2022-08-08T04:11:58.165Z,4.00
2022-08-08T04:14:35.850Z,6.00
2022-08-08T04:17:22.484Z,4.00
2022-08-08T04:19:56.405Z,5.00
2022-08-08T04:22:29.600Z,3.00
2022-08-08T04:24:59.489Z,5.00
2022-08-08T04:28:01.677Z,4.25
2022-08-08T04:30:28.750Z,4.00
2022-08-08T04:33:04.821Z,4.00
2022-08-08T04:35:39.585Z,4.25
2022-08-08T04:38:09.744Z,6.00
2022-08-08T04:40:38.831Z,4.25
2022-08-08T04:43:22.361Z,5.75
2022-08-08T04:46:03.549Z,5.75
2022-08-08T04:48:35.075Z,4.00
2022-08-08T04:51:06.462Z,5.50
2022-08-08T04:54:27.682Z,4.00
2022-08-08T04:56:36.313Z,4.25
2022-08-08T04:59:05.567Z,5.25
2022-08-08T05:01:48.476Z,4.25
2022-08-08T05:04:17.052Z,5.00
2022-08-08T05:06:47.413Z,6.75
2022-08-08T05:09:20.242Z,4.00
2022-08-08T05:11:56.978Z,3.50
2022-08-08T05:14:26.703Z,6.00
2022-08-08T05:17:01.138Z,5.00
2022-08-08T05:20:10.531Z,4.50
2022-08-08T05:22:21.807Z,3.75
2022-08-08T05:24:59.020Z,6.00
2022-08-08T05:27:26.887Z,4.50
2022-08-08T05:30:07.230Z,4.50
2022-08-08T05:32:41.311Z,4.75
2022-08-08T05:35:13.672Z,5.25
2022-08-08T05:37:53.202Z,4.75
2022-08-08T05:40:28.492Z,6.00
2022-08-08T05:43:38.133Z,4.00
2022-08-08T05:46:08.036Z,5.00
2022-08-08T05:48:38.470Z,5.00
2022-08-08T05:51:14.772Z,6.00
2022-08-08T05:54:24.583Z,4.00
2022-08-08T05:56:42.612Z,5.00
2022-08-08T05:59:52.325Z,6.00
2022-08-08T06:02:40.844Z,5.50
2022-08-08T06:05:33.795Z,4.00
2022-08-08T06:08:09.602Z,4.75
2022-08-08T06:10:39.312Z,5.00
2022-08-08T06:13:12.456Z,5.00
2022-08-08T06:15:51.375Z,5.00
2022-08-08T06:18:29.908Z,4.50
2022-08-08T06:20:58.652Z,4.00
2022-08-08T06:23:48.952Z,4.75
2022-08-08T06:26:36.177Z,4.50
2022-08-08T06:29:26.291Z,5.50
2022-08-08T06:32:10.393Z,6.75
2022-08-08T06:34:40.836Z,6.00
2022-08-08T06:37:24.313Z,9.00
2022-08-08T06:39:56.153Z,6.00
2022-08-08T06:42:24.461Z,7.25
2022-08-08T06:44:56.123Z,8.00
2022-08-08T06:47:33.620Z,6.50
2022-08-08T06:50:04.294Z,7.25
2022-08-08T06:52:32.735Z,7.50
2022-08-08T06:55:01.620Z,10.25
2022-08-08T06:57:53.676Z,7.00
2022-08-08T07:00:30.631Z,7.75
2022-08-08T07:02:59.609Z,7.50
2022-08-08T07:05:29.825Z,7.00
2022-08-08T07:08:10.060Z,6.00
2022-08-08T07:10:47.574Z,7.00
2022-08-08T07:13:18.216Z,7.50
2022-08-08T07:16:04.736Z,7.25
2022-08-08T07:18:40.700Z,6.50
2022-08-08T07:21:18.995Z,8.00
2022-08-08T07:24:01.597Z,9.00
2022-08-08T07:26:35.496Z,6.00
2022-08-08T07:29:05.363Z,8.00
2022-08-08T07:31:35.392Z,7.00
2022-08-08T07:34:04.205Z,6.75
2022-08-08T07:36:48.258Z,7.00
2022-08-08T07:39:19.295Z,7.00
2022-08-08T07:42:03.622Z,6.50
2022-08-08T07:44:40.229Z,7.25
2022-08-08T07:47:09.205Z,6.25
2022-08-08T07:49:40.081Z,6.00
2022-08-08T07:52:13.108Z,6.50
2022-08-08T07:54:50.184Z,6.75
2022-08-08T07:57:22.511Z,7.00
2022-08-08T08:00:16.355Z,6.50
2022-08-08T08:02:47.730Z,6.00
2022-08-08T08:05:19.873Z,8.00
2022-08-08T08:07:53.197Z,5.00
2022-08-08T08:10:30.575Z,7.75
2022-08-08T08:13:25.586Z,6.50
2022-08-08T08:16:09.244Z,6.50
2022-08-08T08:18:55.826Z,5.75
2022-08-08T08:21:44.730Z,7.00
2022-08-08T08:24:13.694Z,8.00
2022-08-08T08:26:52.953Z,6.00
2022-08-08T08:29:22.846Z,7.00
2022-08-08T08:31:54.114Z,7.00
2022-08-08T08:34:32.169Z,6.00
2022-08-08T08:37:07.656Z,6.00
2022-08-08T08:39:59.763Z,6.00
2022-08-08T08:42:29.028Z,5.25
2022-08-08T08:45:21.477Z,6.25
2022-08-08T08:47:52.858Z,6.00
2022-08-08T08:50:33.800Z,6.00
2022-08-08T08:53:04.738Z,6.00
2022-08-08T08:55:39.446Z,7.00
2022-08-08T08:58:09.117Z,6.00
2022-08-08T09:01:02.800Z,6.00
2022-08-08T09:03:45.932Z,6.00
2022-08-08T09:06:26.418Z,4.00
2022-08-08T09:08:57.843Z,5.25
2022-08-08T09:11:27.110Z,6.25
2022-08-08T09:14:01.638Z,6.25
2022-08-08T09:16:29.542Z,6.50
2022-08-08T09:19:01.141Z,5.00
2022-08-08T09:22:01.007Z,6.00
2022-08-08T09:24:17.781Z,5.00
2022-08-08T09:26:51.991Z,6.00
2022-08-08T09:29:24.782Z,5.00
2022-08-08T09:31:57.593Z,6.00
2022-08-08T09:34:31.765Z,7.00
2022-08-08T09:37:57.866Z,6.25
2022-08-08T09:39:54.166Z,7.00
2022-08-08T09:42:26.069Z,6.00
2022-08-08T09:45:04.132Z,6.00
2022-08-08T09:48:04.519Z,5.00
2022-08-08T09:50:28.264Z,5.50
2022-08-08T09:53:02.152Z,5.00
2022-08-08T09:56:05.041Z,5.00
2022-08-08T09:58:40.606Z,5.25
2022-08-08T10:01:15.509Z,6.00
2022-08-08T10:03:58.631Z,5.75
2022-08-08T10:06:30.875Z,6.00
2022-08-08T10:09:00.976Z,5.75
2022-08-08T10:12:25.815Z,6.00
2022-08-08T10:14:28.263Z,6.25
2022-08-08T10:17:56.172Z,5.25
2022-08-08T10:19:58.187Z,6.00
2022-08-08T10:22:27.262Z,4.00
2022-08-08T10:25:00.125Z,4.75
2022-08-08T10:27:34.137Z,6.00
2022-08-08T10:30:05.403Z,6.00
2022-08-08T10:32:34.318Z,5.00
2022-08-08T10:35:03.618Z,5.50
2022-08-08T10:37:34.637Z,4.50
2022-08-08T10:40:16.067Z,6.00
2022-08-08T10:42:45.369Z,5.00
2022-08-08T10:45:16.019Z,5.00
2022-08-08T10:47:48.682Z,6.00
2022-08-08T10:50:23.932Z,5.75
2022-08-08T10:52:51.786Z,5.00
2022-08-08T10:55:40.918Z,5.00
2022-08-08T10:58:08.759Z,6.00
2022-08-08T11:00:53.309Z,5.00
2022-08-08T11:03:36.811Z,5.00
2022-08-08T11:06:19.032Z,5.75
2022-08-08T11:08:53.206Z,6.00
2022-08-08T11:11:32.738Z,4.75
2022-08-08T11:14:12.210Z,5.00
2022-08-08T11:16:46.733Z,4.50
2022-08-08T11:19:17.230Z,6.00
2022-08-08T11:21:54.258Z,5.00
2022-08-08T11:24:24.103Z,5.00
2022-08-08T11:26:56.772Z,5.00
2022-08-08T11:29:41.541Z,5.00
2022-08-08T11:32:14.316Z,4.75
2022-08-08T11:35:05.702Z,5.50
2022-08-08T11:38:34.340Z,5.00
2022-08-08T11:40:21.487Z,4.50
2022-08-08T11:42:53.695Z,5.00
2022-08-08T11:45:22.783Z,5.00
2022-08-08T11:48:02.575Z,5.00
2022-08-08T11:50:33.784Z,3.50
2022-08-08T11:53:06.161Z,5.50
2022-08-08T11:55:36.220Z,5.00
2022-08-08T11:58:14.717Z,4.50
2022-08-08T12:00:47.175Z,5.00
2022-08-08T12:03:22.511Z,4.00
2022-08-08T12:05:54.393Z,4.00
2022-08-08T12:08:34.410Z,5.00
2022-08-08T12:11:12.137Z,5.00
2022-08-08T12:14:03.436Z,4.25
2022-08-08T12:16:31.748Z,4.75
2022-08-08T12:19:31.078Z,4.00
2022-08-08T12:22:20.912Z,5.00
2022-08-08T12:24:53.935Z,4.50
2022-08-08T12:27:43.197Z,5.00
2022-08-08T12:30:21.834Z,5.00
2022-08-08T12:32:54.541Z,4.00
2022-08-08T12:35:27.033Z,6.00
2022-08-08T12:38:17.715Z,4.75
2022-08-08T12:40:55.894Z,4.00
2022-08-08T12:43:51.294Z,6.00
2022-08-08T12:46:25.264Z,5.00
2022-08-08T12:49:22.220Z,4.75
2022-08-08T12:51:50.111Z,4.00
2022-08-08T12:54:27.109Z,4.00
2022-08-08T12:56:56.953Z,4.75
2022-08-08T12:59:36.229Z,5.50
2022-08-08T13:02:23.388Z,4.00
2022-08-08T13:04:57.313Z,4.00
2022-08-08T13:08:02.887Z,5.50
2022-08-08T13:10:31.898Z,4.50
2022-08-08T13:13:06.183Z,4.25
2022-08-08T13:15:36.530Z,4.00
2022-08-08T13:18:11.494Z,4.00
2022-08-08T13:20:45.107Z,5.00
2022-08-08T13:23:41.347Z,4.00
2022-08-08T13:26:15.581Z,4.50
2022-08-08T13:28:45.857Z,4.75
2022-08-08T13:31:17.293Z,3.50
2022-08-08T13:33:47.293Z,4.50
2022-08-08T13:36:26.204Z,3.75
2022-08-08T13:39:00.473Z,5.00
2022-08-08T13:41:37.797Z,6.00
2022-08-08T13:44:11.412Z,4.50
2022-08-08T13:46:40.006Z,5.00
2022-08-08T13:50:35.235Z,4.50
2022-08-08T13:52:05.822Z,4.00
2022-08-08T13:54:35.986Z,4.00
2022-08-08T13:57:12.362Z,5.00
2022-08-08T13:59:44.378Z,5.50
2022-08-08T14:02:20.327Z,3.50
2022-08-08T14:04:57.166Z,5.00
2022-08-08T14:07:29.712Z,4.00
2022-08-08T14:10:04.265Z,4.50
2022-08-08T14:12:43.862Z,4.50
2022-08-08T14:15:24.537Z,6.00
2022-08-08T14:18:36.815Z,4.00
2022-08-08T14:20:57.621Z,5.00
2022-08-08T14:24:07.414Z,4.50
2022-08-08T14:26:29.986Z,5.00
2022-08-08T14:29:01.513Z,5.00
2022-08-08T14:32:05.694Z,4.00
2022-08-08T14:34:27.710Z,4.00
2022-08-08T14:36:57.987Z,4.25
2022-08-08T14:39:48.234Z,4.50
2022-08-08T14:42:16.990Z,4.00
2022-08-08T14:44:55.470Z,4.00
2022-08-08T14:47:23.359Z,3.75
2022-08-08T14:50:05.909Z,4.00
2022-08-08T14:52:48.578Z,5.25
2022-08-08T14:55:22.474Z,4.00
2022-08-08T14:58:16.299Z,5.00
2022-08-08T15:00:47.800Z,5.00
2022-08-08T15:03:17.418Z,3.00
2022-08-08T15:05:54.712Z,4.25
2022-08-08T15:08:34.807Z,4.00
2022-08-08T15:11:07.167Z,5.00
2022-08-08T15:13:40.848Z,5.25
2022-08-08T15:16:28.057Z,4.00
2022-08-08T15:18:58.330Z,4.75
2022-08-08T15:21:30.220Z,5.00
2022-08-08T15:23:58.467Z,4.00
2022-08-08T15:26:29.218Z,4.00
2022-08-08T15:28:58.893Z,5.75
2022-08-08T15:32:03.564Z,4.50
2022-08-08T15:34:28.917Z,4.00
2022-08-08T15:36:58.414Z,5.00
2022-08-08T15:39:29.011Z,4.25
2022-08-08T15:41:59.263Z,5.00
2022-08-08T15:44:29.835Z,4.50
2022-08-08T15:46:59.807Z,4.25
2022-08-08T15:49:29.504Z,6.00
2022-08-08T15:51:57.378Z,5.00
2022-08-08T15:54:38.346Z,4.25
2022-08-08T15:57:08.823Z,6.00
2022-08-08T16:00:05.722Z,5.00
2022-08-08T16:02:37.153Z,4.75
2022-08-08T16:05:13.978Z,5.00
2022-08-08T16:07:51.559Z,5.00
2022-08-08T16:13:15.435Z,5.00
2022-08-08T16:13:31.924Z,4.00
2022-08-08T16:16:09.564Z,5.00
2022-08-08T16:18:56.205Z,5.50
2022-08-08T16:21:27.102Z,5.00
2022-08-08T16:23:56.442Z,5.00
2022-08-08T16:26:34.391Z,4.00
2022-08-08T16:29:08.163Z,4.25
2022-08-08T16:31:40.730Z,4.00
2022-08-08T16:34:10.001Z,4.00
2022-08-08T16:36:38.462Z,5.00
2022-08-08T16:39:09.709Z,4.00
2022-08-08T16:41:50.235Z,5.00
2022-08-08T16:44:28.016Z,4.00
2022-08-08T16:47:18.510Z,5.00
2022-08-08T16:49:49.907Z,5.00
2022-08-08T16:55:05.496Z,4.75
2022-08-08T16:55:34.265Z,3.00
2022-08-08T16:58:16.349Z,3.75
2022-08-08T17:00:42.664Z,4.00
2022-08-08T17:03:25.334Z,4.75
2022-08-08T17:06:06.936Z,5.00
2022-08-08T17:08:54.672Z,4.50
2022-08-08T17:11:22.592Z,5.25
2022-08-08T17:14:01.586Z,6.25
2022-08-08T17:16:29.905Z,5.00
2022-08-08T17:19:00.611Z,5.75
2022-08-08T17:21:37.644Z,6.00
2022-08-08T17:24:21.981Z,6.25
2022-08-08T17:26:57.722Z,7.25
2022-08-08T17:29:25.969Z,4.50
2022-08-08T17:31:53.798Z,7.50
2022-08-08T17:34:54.462Z,8.50
2022-08-08T17:37:11.335Z,6.00
2022-08-08T17:40:04.614Z,5.25
2022-08-08T17:42:28.555Z,5.75
2022-08-08T17:44:58.495Z,5.50
2022-08-08T17:47:28.150Z,5.75
2022-08-08T17:50:07.972Z,6.00
2022-08-08T17:52:38.178Z,4.75
2022-08-08T17:56:06.065Z,6.00
2022-08-08T17:57:55.225Z,7.00
2022-08-08T18:00:30.183Z,6.50
2022-08-08T18:03:08.670Z,6.50
2022-08-08T18:05:48.265Z,7.25
2022-08-08T18:08:37.942Z,6.75
2022-08-08T18:11:06.936Z,6.00
2022-08-08T18:13:41.493Z,7.00
2022-08-08T18:16:10.010Z,6.00
2022-08-08T18:18:42.583Z,6.00
2022-08-08T18:21:35.371Z,6.25
2022-08-08T18:24:00.280Z,6.75
2022-08-08T18:26:29.018Z,6.50
2022-08-08T18:28:57.722Z,6.75
2022-08-08T18:31:27.850Z,6.50
2022-08-08T18:34:18.789Z,5.00
2022-08-08T18:36:46.241Z,7.00
2022-08-08T18:39:27.730Z,5.75
2022-08-08T18:42:03.389Z,7.00
2022-08-08T18:44:33.092Z,6.00
2022-08-08T18:47:02.663Z,7.00
2022-08-08T18:49:41.129Z,6.00
2022-08-08T18:52:22.289Z,7.25
2022-08-08T18:55:00.686Z,6.75
2022-08-08T18:57:40.988Z,7.00
2022-08-08T19:00:16.732Z,7.00
2022-08-08T19:02:55.291Z,6.00
2022-08-08T19:05:32.240Z,6.00
2022-08-08T19:08:25.114Z,7.00
2022-08-08T19:10:56.595Z,6.00
2022-08-08T19:13:25.412Z,7.75
2022-08-08T19:16:15.843Z,7.00
2022-08-08T19:18:53.197Z,7.00
2022-08-08T19:21:30.342Z,7.00
2022-08-08T19:24:05.623Z,5.75
2022-08-08T19:26:34.651Z,7.25
2022-08-08T19:29:02.533Z,5.25
2022-08-08T19:31:35.294Z,6.00
2022-08-08T19:34:36.253Z,6.75
2022-08-08T19:36:55.451Z,5.50
2022-08-08T19:39:30.696Z,5.00
2022-08-08T19:42:04.183Z,6.25
2022-08-08T19:44:45.520Z,5.00
2022-08-08T19:47:14.497Z,7.00
2022-08-08T19:49:43.375Z,6.00
2022-08-08T19:52:11.879Z,6.75
2022-08-08T19:54:43.317Z,6.00
2022-08-08T19:57:14.240Z,6.00
2022-08-08T19:59:43.999Z,6.00
2022-08-08T20:02:12.269Z,7.00
2022-08-08T20:04:40.862Z,8.00
2022-08-08T20:08:28.023Z,6.50
2022-08-08T20:10:00.489Z,6.00
2022-08-08T20:12:32.088Z,6.50
2022-08-08T20:15:14.985Z,6.00
2022-08-08T20:17:45.690Z,7.50
2022-08-08T20:20:19.255Z,5.00
2022-08-08T20:22:52.742Z,8.50
2022-08-08T20:25:29.618Z,7.00
2022-08-08T20:28:01.010Z,6.00
2022-08-08T20:30:38.952Z,6.00
2022-08-08T20:35:58.787Z,5.75
2022-08-08T20:38:32.922Z,5.00
2022-08-08T20:41:05.793Z,7.00
2022-08-08T20:43:49.260Z,6.00
2022-08-08T20:46:17.484Z,6.00
2022-08-08T20:48:48.389Z,6.25
2022-08-08T20:51:16.282Z,6.50
2022-08-08T20:53:58.247Z,6.50
2022-08-08T20:56:35.217Z,5.00
2022-08-08T20:59:05.922Z,6.00
2022-08-08T21:02:05.348Z,8.00
2022-08-08T21:04:23.332Z,6.00
2022-08-08T21:06:51.906Z,7.00
2022-08-08T21:09:21.494Z,7.00
2022-08-08T21:12:02.694Z,7.00
2022-08-08T21:14:34.754Z,5.50
2022-08-08T21:17:06.177Z,6.00
2022-08-08T21:19:45.145Z,5.75
2022-08-08T21:22:14.176Z,5.75
2022-08-08T21:24:52.740Z,6.50
2022-08-08T21:28:06.161Z,5.00
2022-08-08T21:30:18.851Z,5.25
2022-08-08T21:32:52.535Z,5.50
2022-08-08T21:36:14.923Z,5.00
2022-08-08T21:38:16.783Z,6.25
2022-08-08T21:40:55.435Z,7.00
2022-08-08T21:43:34.361Z,7.00
2022-08-08T21:48:16.298Z,7.00
2022-08-08T21:48:59.136Z,6.50
2022-08-08T21:54:18.137Z,6.75
2022-08-08T21:54:34.276Z,6.00
2022-08-08T21:57:15.210Z,5.25
2022-08-08T22:00:03.968Z,5.75
2022-08-08T22:02:35.989Z,6.00
2022-08-08T22:05:05.258Z,7.00
2022-08-08T22:07:41.475Z,5.50
2022-08-08T22:10:18.370Z,6.75
2022-08-08T22:13:17.628Z,6.50
2022-08-08T22:15:58.355Z,7.00
2022-08-08T22:18:31.132Z,6.00
2022-08-08T22:21:14.571Z,6.50
2022-08-08T22:23:50.745Z,5.75
2022-08-08T22:26:28.733Z,6.75
2022-08-08T22:29:15.140Z,5.00
2022-08-08T22:32:02.385Z,6.00
2022-08-08T22:34:32.994Z,4.75
2022-08-08T22:37:27.903Z,6.25
2022-08-08T22:40:01.182Z,5.75
2022-08-08T22:42:41.030Z,5.00
2022-08-08T22:45:21.978Z,4.50
2022-08-08T22:47:52.548Z,5.50
2022-08-08T22:50:26.740Z,6.25
2022-08-08T22:54:27.980Z,6.00
2022-08-08T22:55:59.191Z,6.50
2022-08-08T22:58:38.092Z,5.00
2022-08-08T23:02:00.516Z,6.00
2022-08-08T23:04:00.512Z,6.25
2022-08-08T23:06:28.377Z,5.00
2022-08-08T23:08:58.706Z,5.00
2022-08-08T23:11:30.843Z,5.75
2022-08-08T23:14:15.637Z,5.00
2022-08-08T23:16:57.460Z,6.00
2022-08-08T23:19:31.001Z,6.00
2022-08-08T23:22:01.576Z,7.00
2022-08-08T23:24:36.208Z,8.25
2022-08-08T23:27:06.129Z,6.75
2022-08-08T23:29:33.955Z,5.25
2022-08-08T23:32:04.424Z,6.00
2022-08-08T23:34:49.571Z,5.50
2022-08-08T23:37:54.214Z,6.75
2022-08-08T23:40:22.725Z,5.00
2022-08-08T23:42:51.320Z,5.00
2022-08-08T23:49:02.241Z,6.25
2022-08-08T23:49:06.341Z,6.00
2022-08-08T23:51:03.577Z,7.00
2022-08-08T23:54:05.470Z,5.00
2022-08-08T23:56:32.012Z,7.00
2022-08-08T23:59:00.075Z,5.00
